createdAt,value
2018-02-23T00:00:33.432Z,69.60
2018-02-23T00:03:05.557Z,70.30
2018-02-23T00:05:37.112Z,69.90
2018-02-23T00:08:06.384Z,70.60
2018-02-23T00:10:42.504Z,71.00
2018-02-23T00:13:11.576Z,71.10
2018-02-23T00:15:43.769Z,72.00
2018-02-23T00:18:11.840Z,72.30
2018-02-23T00:20:39.910Z,73.10
2018-02-23T00:23:07.953Z,73.70
2018-02-23T00:25:39.580Z,73.70
2018-02-23T00:28:12.276Z,73.80
2018-02-23T00:30:42.201Z,73.70
2018-02-23T00:33:11.772Z,74.30
2018-02-23T00:35:40.788Z,74.40
2018-02-23T00:38:13.725Z,74.50
2018-02-23T00:40:43.685Z,74.40
2018-02-23T00:43:14.673Z,76.20
2018-02-23T00:45:47.048Z,76.20
2018-02-23T00:48:16.421Z,76.20
2018-02-23T00:50:47.736Z,76.80
2018-02-23T00:53:31.036Z,75.50
2018-02-23T00:56:00.068Z,75.40
2018-02-23T00:58:29.582Z,74.60
2018-02-23T01:01:00.304Z,74.90
2018-02-23T01:03:40.504Z,75.60
2018-02-23T01:06:10.516Z,75.10
2018-02-23T01:08:46.936Z,75.90
2018-02-23T01:11:15.816Z,76.50
2018-02-23T01:13:45.168Z,76.50
2018-02-23T01:16:17.508Z,77.10
2018-02-23T01:18:46.528Z,78.10
2018-02-23T01:21:20.536Z,77.30
2018-02-23T01:23:51.161Z,76.80
2018-02-23T01:26:22.276Z,77.30
2018-02-23T01:28:55.824Z,78.00
2018-02-23T01:31:37.024Z,77.70
2018-02-23T01:34:06.072Z,77.80
2018-02-23T01:36:35.179Z,78.10
2018-02-23T01:39:05.151Z,78.20
2018-02-23T01:41:46.544Z,78.20
2018-02-23T01:44:17.752Z,78.10
2018-02-23T01:46:47.816Z,78.20
2018-02-23T01:49:16.829Z,78.00
2018-02-23T01:51:45.932Z,78.60
2018-02-23T01:54:19.476Z,79.30
2018-02-23T01:56:47.540Z,79.50
2018-02-23T01:59:17.592Z,79.30
2018-02-23T02:01:49.260Z,78.70
2018-02-23T02:04:17.388Z,79.00
2018-02-23T02:06:47.200Z,79.20
2018-02-23T02:09:17.968Z,79.80
2018-02-23T02:11:54.603Z,79.70
2018-02-23T02:14:22.660Z,79.70
2018-02-23T02:16:51.728Z,79.70
2018-02-23T02:19:21.685Z,80.70
2018-02-23T02:21:56.284Z,80.40
2018-02-23T02:24:39.599Z,80.80
2018-02-23T02:27:07.649Z,80.90
2018-02-23T02:29:35.696Z,80.40
2018-02-23T02:32:03.771Z,79.90
2018-02-23T02:34:39.527Z,79.70
2018-02-23T02:37:09.353Z,80.00
2018-02-23T02:39:37.760Z,80.00
2018-02-23T02:42:14.280Z,80.50
2018-02-23T02:44:42.336Z,81.30
2018-02-23T02:47:14.624Z,82.00
2018-02-23T02:49:50.071Z,82.00
2018-02-23T02:52:26.707Z,83.20
2018-02-23T02:55:01.289Z,84.00
2018-02-23T02:57:39.115Z,83.80
2018-02-23T03:00:08.186Z,83.70
2018-02-23T03:02:48.244Z,83.00
2018-02-23T03:05:17.299Z,82.50
2018-02-23T03:07:56.588Z,81.70
2018-02-23T03:10:24.652Z,82.20
2018-02-23T03:12:53.712Z,81.60
2018-02-23T03:15:39.327Z,81.70
2018-02-23T03:18:14.148Z,81.50
2018-02-23T03:20:49.736Z,81.60
2018-02-23T03:23:26.512Z,81.50
2018-02-23T03:25:55.348Z,81.40
2018-02-23T03:28:24.596Z,81.30
2018-02-23T03:30:58.840Z,82.30
2018-02-23T03:33:34.259Z,82.30
2018-02-23T03:36:10.925Z,82.90
2018-02-23T03:38:39.926Z,82.80
2018-02-23T03:41:12.484Z,82.00
2018-02-23T03:43:40.636Z,81.90
2018-02-23T03:46:08.656Z,81.80
2018-02-23T03:48:40.524Z,81.50
2018-02-23T03:51:10.508Z,81.40
2018-02-23T03:53:46.412Z,81.70
2018-02-23T03:56:22.173Z,82.20
2018-02-23T03:58:53.388Z,82.10
2018-02-23T04:01:23.579Z,81.90
2018-02-23T04:03:58.220Z,82.00
2018-02-23T04:06:29.228Z,82.30
2018-02-23T04:08:57.332Z,83.20
2018-02-23T04:11:26.375Z,82.60
2018-02-23T04:13:58.443Z,82.60
2018-02-23T04:16:36.755Z,82.80
2018-02-23T04:19:05.780Z,83.30
2018-02-23T04:21:38.419Z,83.20
2018-02-23T04:24:13.743Z,83.10
2018-02-23T04:26:55.519Z,83.30
2018-02-23T04:29:31.608Z,83.30
2018-02-23T04:32:03.202Z,83.70
2018-02-23T04:34:33.931Z,83.90
2018-02-23T04:37:05.599Z,84.20
2018-02-23T04:39:35.611Z,84.10
2018-02-23T04:42:04.403Z,83.60
2018-02-23T04:44:33.351Z,83.60
2018-02-23T04:47:12.771Z,84.00
2018-02-23T04:49:44.771Z,83.10
2018-02-23T04:52:12.808Z,83.40
2018-02-23T04:54:40.844Z,83.60
2018-02-23T04:57:17.167Z,84.30
2018-02-23T04:59:52.927Z,83.80
2018-02-23T05:02:21.924Z,83.80
2018-02-23T05:04:52.646Z,84.00
2018-02-23T05:07:20.676Z,83.80
2018-02-23T05:09:49.801Z,84.10
2018-02-23T05:12:18.819Z,84.30
2018-02-23T05:14:48.609Z,83.50
2018-02-23T05:17:19.338Z,83.70
2018-02-23T05:19:50.613Z,83.70
2018-02-23T05:22:21.324Z,83.90
2018-02-23T05:24:51.359Z,83.90
2018-02-23T05:27:21.163Z,84.40
2018-02-23T05:29:51.907Z,84.40
2018-02-23T05:32:19.959Z,84.30
2018-02-23T05:34:47.987Z,84.40
2018-02-23T05:37:24.607Z,84.80
2018-02-23T05:39:54.623Z,84.70
2018-02-23T05:42:23.427Z,85.00
2018-02-23T05:44:52.211Z,84.70
2018-02-23T05:47:20.281Z,84.60
2018-02-23T05:49:50.275Z,84.70
2018-02-23T05:52:22.771Z,85.60
2018-02-23T05:54:51.739Z,85.90
2018-02-23T05:57:29.051Z,85.20
2018-02-23T05:59:57.146Z,85.20
2018-02-23T06:02:34.983Z,85.30
2018-02-23T06:05:05.007Z,85.20
2018-02-23T06:07:35.763Z,85.90
2018-02-23T06:10:06.599Z,85.90
2018-02-23T06:12:36.383Z,85.60
2018-02-23T06:15:12.727Z,85.60
2018-02-23T06:20:51.735Z,85.10
2018-02-23T06:23:19.780Z,85.00
2018-02-23T06:25:47.811Z,84.90
2018-02-23T06:28:16.855Z,84.80
2018-02-23T06:30:52.558Z,84.80
2018-02-23T06:33:25.675Z,84.70
2018-02-23T06:35:59.435Z,84.70
2018-02-23T06:38:27.483Z,84.40
2018-02-23T06:40:56.455Z,84.20
2018-02-23T06:43:25.251Z,83.80
2018-02-23T06:45:53.321Z,83.70
2018-02-23T06:48:21.366Z,83.60
2018-02-23T06:50:50.356Z,83.60
2018-02-23T06:53:18.391Z,83.50
2018-02-23T06:55:50.284Z,83.00
2018-02-23T06:58:18.306Z,82.60
2018-02-23T07:00:56.850Z,82.50
2018-02-23T07:03:25.859Z,82.40
2018-02-23T07:05:54.791Z,82.40
2018-02-23T07:08:23.839Z,82.20
2018-02-23T07:10:57.553Z,81.80
2018-02-23T07:13:33.270Z,81.60
2018-02-23T07:16:04.439Z,81.10
2018-02-23T07:18:34.474Z,81.10
2018-02-23T07:21:02.515Z,81.40
2018-02-23T07:23:31.522Z,81.10
2018-02-23T07:26:05.048Z,80.70
2018-02-23T07:28:34.010Z,81.70
2018-02-23T07:31:08.286Z,80.30
2018-02-23T07:33:39.562Z,80.40
2018-02-23T07:36:07.598Z,80.50
2018-02-23T07:38:39.314Z,80.00
2018-02-23T07:41:08.106Z,79.50
2018-02-23T07:43:37.790Z,79.60
2018-02-23T07:46:12.430Z,79.50
2018-02-23T07:48:47.723Z,79.30
2018-02-23T07:51:17.650Z,78.50
2018-02-23T07:53:49.997Z,78.40
2018-02-23T07:56:21.538Z,78.30
2018-02-23T07:58:49.560Z,78.30
2018-02-23T08:01:17.590Z,78.30
2018-02-23T08:03:45.875Z,78.00
2018-02-23T08:06:13.875Z,76.70
2018-02-23T08:09:01.043Z,77.10
2018-02-23T08:11:29.062Z,77.50
2018-02-23T08:13:57.090Z,75.70
2018-02-23T08:16:29.686Z,75.30
2018-02-23T08:19:00.658Z,74.50
2018-02-23T08:21:29.570Z,75.80
2018-02-23T08:24:01.226Z,75.50
2018-02-23T08:26:35.645Z,74.40
2018-02-23T08:29:04.594Z,74.20
2018-02-23T08:34:30.550Z,73.30
2018-02-23T08:37:10.050Z,73.30
2018-02-23T08:39:38.086Z,73.30
2018-02-23T08:42:06.114Z,73.10
2018-02-23T08:44:34.142Z,71.70
2018-02-23T08:47:11.568Z,71.60
2018-02-23T08:49:40.474Z,71.30
2018-02-23T08:52:08.502Z,70.50
2018-02-23T08:54:42.762Z,69.40
2018-02-23T08:57:11.693Z,69.00
2018-02-23T08:59:54.314Z,69.10
2018-02-23T09:02:24.269Z,68.50
2018-02-23T09:04:52.298Z,67.20
2018-02-23T09:07:34.545Z,66.20
2018-02-23T09:10:02.570Z,67.40
2018-02-23T09:12:36.563Z,67.10
2018-02-23T09:15:06.390Z,66.80
2018-02-23T09:17:51.330Z,66.00
2018-02-23T09:23:14.542Z,64.90
2018-02-23T09:25:49.526Z,64.70
2018-02-23T09:28:28.510Z,64.00
2018-02-23T09:30:59.894Z,64.00
2018-02-23T09:36:39.509Z,56.60
2018-02-23T09:39:25.898Z,56.50
2018-02-23T09:41:53.913Z,55.20
2018-02-23T09:44:36.409Z,53.80
2018-02-23T09:47:16.637Z,50.90
2018-02-23T09:49:56.514Z,49.90
2018-02-23T09:52:30.425Z,49.50
2018-02-23T09:55:02.610Z,49.40
2018-02-23T09:57:47.018Z,49.40
2018-02-23T10:00:19.430Z,49.40
2018-02-23T10:02:54.862Z,47.70
2018-02-23T10:05:23.806Z,47.40
2018-02-23T10:07:53.730Z,46.70
2018-02-23T10:10:22.777Z,46.10
2018-02-23T10:12:50.798Z,46.90
2018-02-23T10:15:24.593Z,46.50
2018-02-23T10:18:10.826Z,46.20
2018-02-23T10:20:52.862Z,46.60
2018-02-23T10:23:23.557Z,46.60
2018-02-23T10:26:04.798Z,46.50
2018-02-23T10:28:32.825Z,45.80
2018-02-23T10:31:05.598Z,45.60
2018-02-23T10:33:33.638Z,44.90
2018-02-23T10:36:07.274Z,45.60
2018-02-23T10:38:35.305Z,46.40
2018-02-23T10:41:10.655Z,45.40
2018-02-23T10:43:51.266Z,44.40
2018-02-23T10:46:24.893Z,45.10
2018-02-23T10:48:53.837Z,44.10
2018-02-23T10:51:22.822Z,43.50
2018-02-23T10:53:57.449Z,42.90
2018-02-23T10:56:30.489Z,40.90
2018-02-23T10:58:58.521Z,38.90
2018-02-23T11:01:33.630Z,39.70
2018-02-23T11:04:01.669Z,39.80
2018-02-23T11:06:29.693Z,39.70
2018-02-23T11:09:01.346Z,38.80
2018-02-23T11:11:29.377Z,39.60
2018-02-23T11:14:10.521Z,39.70
2018-02-23T11:16:44.108Z,39.00
2018-02-23T11:19:18.725Z,39.50
2018-02-23T11:21:56.613Z,41.50
2018-02-23T11:24:31.085Z,41.00
2018-02-23T11:27:00.030Z,42.80
2018-02-23T11:29:29.022Z,41.70
2018-02-23T11:32:04.441Z,42.20
2018-02-23T11:34:36.277Z,39.50
2018-02-23T11:37:06.221Z,38.50
2018-02-23T11:39:40.700Z,37.90
2018-02-23T11:42:10.673Z,37.00
2018-02-23T11:44:38.701Z,38.50
2018-02-23T11:47:09.793Z,39.20
2018-02-23T11:49:38.777Z,38.80
2018-02-23T11:52:10.645Z,39.40
2018-02-23T11:54:40.557Z,38.40
2018-02-23T11:57:10.573Z,39.40
2018-02-23T11:59:38.597Z,39.40
2018-02-23T12:02:10.805Z,39.90
2018-02-23T12:04:40.830Z,40.70
2018-02-23T12:07:09.821Z,38.40
2018-02-23T12:09:37.857Z,38.50
2018-02-23T12:12:06.876Z,38.10
2018-02-23T12:14:40.681Z,37.80
2018-02-23T12:17:08.712Z,36.70
2018-02-23T12:19:44.273Z,35.40
2018-02-23T12:22:12.300Z,37.00
2018-02-23T12:24:43.229Z,37.60
2018-02-23T12:27:13.025Z,36.10
2018-02-23T12:29:41.054Z,36.10
2018-02-23T12:32:12.953Z,36.70
2018-02-23T12:34:41.045Z,35.60
2018-02-23T12:37:14.429Z,38.10
2018-02-23T12:39:43.401Z,38.10
2018-02-23T12:42:11.422Z,36.70
2018-02-23T12:44:39.498Z,36.20
2018-02-23T12:47:10.180Z,37.10
2018-02-23T12:49:38.201Z,37.00
2018-02-23T12:52:06.241Z,38.40
2018-02-23T12:54:38.717Z,37.60
2018-02-23T12:57:10.436Z,35.20
2018-02-23T12:59:38.473Z,35.20
2018-02-23T13:02:07.533Z,33.30
2018-02-23T13:04:36.340Z,35.20
2018-02-23T13:07:04.372Z,35.20
2018-02-23T13:09:34.380Z,34.60
2018-02-23T13:12:02.424Z,35.60
2018-02-23T13:14:36.997Z,34.70
2018-02-23T13:17:07.013Z,34.10
2018-02-23T13:19:35.848Z,35.20
2018-02-23T13:22:03.865Z,35.10
2018-02-23T13:24:34.584Z,35.20
2018-02-23T13:27:11.317Z,35.20
2018-02-23T13:29:39.337Z,35.90
2018-02-23T13:32:07.365Z,35.50
2018-02-23T13:34:37.320Z,36.50
2018-02-23T13:37:09.069Z,35.60
2018-02-23T13:39:50.121Z,35.60
2018-02-23T13:42:18.165Z,33.60
2018-02-23T13:44:46.196Z,34.20
2018-02-23T13:47:14.230Z,33.70
2018-02-23T13:49:42.260Z,31.80
2018-02-23T13:52:11.249Z,33.20
2018-02-23T13:54:41.228Z,34.30
2018-02-23T13:57:10.157Z,34.30
2018-02-23T13:59:38.192Z,35.50
2018-02-23T14:02:06.217Z,34.70
2018-02-23T14:04:34.253Z,34.10
2018-02-23T14:07:10.528Z,32.40
2018-02-23T14:09:40.304Z,33.00
2018-02-23T14:12:10.227Z,32.90
2018-02-23T14:14:38.249Z,32.90
2018-02-23T14:17:09.992Z,33.90
2018-02-23T14:19:41.596Z,33.80
2018-02-23T14:22:09.637Z,33.50
2018-02-23T14:24:37.685Z,33.30
2018-02-23T14:27:05.717Z,33.90
2018-02-23T14:29:34.705Z,32.30
2018-02-23T14:32:02.733Z,32.40
2018-02-23T14:34:30.820Z,31.40
2018-02-23T14:37:00.764Z,31.80
2018-02-23T14:39:30.772Z,32.30
2018-02-23T14:42:11.260Z,33.50
2018-02-23T14:44:41.142Z,34.90
2018-02-23T14:47:10.075Z,34.50
2018-02-23T14:49:50.704Z,34.50
2018-02-23T14:52:18.724Z,34.40
2018-02-23T14:54:46.749Z,33.80
2018-02-23T14:57:18.609Z,34.80
2018-02-23T14:59:46.669Z,36.40
2018-02-23T15:02:15.662Z,35.40
2018-02-23T15:04:44.100Z,35.70
2018-02-23T15:07:12.121Z,36.60
2018-02-23T15:09:43.253Z,37.20
2018-02-23T15:12:12.177Z,37.50
2018-02-23T15:14:41.956Z,37.40
2018-02-23T15:17:10.953Z,37.40
2018-02-23T15:19:39.884Z,37.00
2018-02-23T15:22:08.661Z,38.50
2018-02-23T15:24:36.680Z,38.50
2018-02-23T15:27:11.140Z,39.10
2018-02-23T15:29:39.125Z,39.10
2018-02-23T15:32:19.792Z,39.40
2018-02-23T15:34:47.824Z,39.40
2018-02-23T15:37:25.836Z,40.50
2018-02-23T15:39:55.856Z,40.40
2018-02-23T15:42:24.760Z,40.40
2018-02-23T15:44:55.464Z,41.30
2018-02-23T15:47:26.032Z,41.10
2018-02-23T15:50:05.071Z,41.80
2018-02-23T15:52:33.085Z,41.80
2018-02-23T15:55:02.010Z,41.60
2018-02-23T15:57:33.674Z,45.40
2018-02-23T16:00:03.349Z,47.00
2018-02-23T16:02:32.353Z,47.00
2018-02-23T16:05:01.344Z,48.20
2018-02-23T16:07:30.324Z,48.80
2018-02-23T16:10:05.232Z,49.90
2018-02-23T16:12:33.260Z,50.40
2018-02-23T16:15:03.241Z,51.20
2018-02-23T16:17:37.045Z,51.90
2018-02-23T16:20:06.046Z,52.60
2018-02-23T16:22:34.125Z,52.90
2018-02-23T16:25:09.765Z,52.90
2018-02-23T16:27:42.492Z,53.50
2018-02-23T16:30:10.513Z,55.30
2018-02-23T16:32:44.373Z,54.90
2018-02-23T16:35:12.940Z,54.90
2018-02-23T16:37:44.388Z,54.70
2018-02-23T16:40:18.256Z,55.00
2018-02-23T16:42:49.912Z,56.00
2018-02-23T16:45:18.840Z,55.80
2018-02-23T16:47:48.748Z,56.20
2018-02-23T16:50:17.544Z,57.40
2018-02-23T16:52:59.884Z,57.40
2018-02-23T16:55:33.264Z,58.40
2018-02-23T16:58:06.032Z,58.50
2018-02-23T17:00:38.868Z,58.60
2018-02-23T17:03:10.824Z,58.80
2018-02-23T17:05:38.876Z,58.90
2018-02-23T17:08:10.552Z,58.70
2018-02-23T17:10:38.580Z,59.90
2018-02-23T17:13:06.616Z,59.40
2018-02-23T17:15:47.800Z,59.30
2018-02-23T17:18:20.960Z,58.40
2018-02-23T17:21:08.056Z,58.30
2018-02-23T17:23:36.088Z,58.80
2018-02-23T17:26:09.146Z,60.00
2018-02-23T17:28:41.820Z,59.70
2018-02-23T17:31:11.872Z,61.20
2018-02-23T17:33:44.404Z,58.90
2018-02-23T17:36:14.059Z,60.30
2018-02-23T17:38:43.404Z,60.20
2018-02-23T17:41:12.320Z,59.20
2018-02-23T17:43:42.328Z,58.50
2018-02-23T17:46:10.375Z,59.70
2018-02-23T17:48:38.401Z,60.10
2018-02-23T17:51:13.988Z,58.50
2018-02-23T17:53:42.923Z,59.90
2018-02-23T17:56:11.707Z,59.30
2018-02-23T17:58:40.523Z,60.10
2018-02-23T18:01:09.472Z,60.10
2018-02-23T18:03:40.843Z,61.20
2018-02-23T18:06:10.798Z,60.60
2018-02-23T18:08:40.539Z,61.20
2018-02-23T18:11:09.536Z,60.90
2018-02-23T18:13:38.564Z,60.00
2018-02-23T18:16:06.556Z,60.60
2018-02-23T18:18:34.587Z,60.50
2018-02-23T18:21:08.331Z,60.60
2018-02-23T18:23:42.228Z,60.80
2018-02-23T18:26:16.976Z,61.30
2018-02-23T18:28:47.032Z,61.30
2018-02-23T18:31:22.744Z,62.20
2018-02-23T18:33:51.768Z,61.50
2018-02-23T18:36:23.748Z,61.60
2018-02-23T18:38:56.551Z,61.30
2018-02-23T18:41:35.003Z,61.30
2018-02-23T18:44:03.032Z,60.90
2018-02-23T18:46:31.991Z,60.50
2018-02-23T18:49:00.980Z,60.80
2018-02-23T18:51:29.991Z,61.30
2018-02-23T18:54:04.867Z,62.00
2018-02-23T18:56:49.503Z,61.90
2018-02-23T18:59:21.824Z,61.50
2018-02-23T19:02:08.059Z,61.70
2018-02-23T19:04:56.335Z,62.10
2018-02-23T19:07:29.121Z,60.60
2018-02-23T19:10:01.419Z,61.70
2018-02-23T19:12:29.436Z,62.20
2018-02-23T19:15:00.539Z,61.30
2018-02-23T19:17:30.459Z,60.80
2018-02-23T19:20:00.152Z,61.30
2018-02-23T19:22:33.059Z,61.10
2018-02-23T19:25:01.868Z,62.00
2018-02-23T19:27:40.415Z,61.90
2018-02-23T19:30:09.336Z,61.80
2018-02-23T19:32:41.187Z,62.00
2018-02-23T19:35:09.235Z,62.40
2018-02-23T19:37:42.615Z,63.10
2018-02-23T19:40:10.680Z,63.90
2018-02-23T19:42:40.710Z,63.40
2018-02-23T19:45:10.031Z,63.60
2018-02-23T19:47:38.830Z,63.80
2018-02-23T19:50:12.368Z,63.60
2018-02-23T19:52:46.371Z,63.70
2018-02-23T19:55:20.858Z,63.90
2018-02-23T19:57:48.899Z,63.90
2018-02-23T20:00:16.951Z,63.20
2018-02-23T20:02:50.719Z,63.50
2018-02-23T20:05:18.783Z,63.40
2018-02-23T20:07:50.547Z,63.30
2018-02-23T20:10:20.901Z,63.10
2018-02-23T20:12:49.016Z,63.10
2018-02-23T20:15:19.419Z,62.70
2018-02-23T20:17:48.451Z,62.60
2018-02-23T20:20:17.500Z,63.80
2018-02-23T20:22:46.275Z,63.90
2018-02-23T20:25:16.271Z,63.90
2018-02-23T20:27:45.243Z,63.40
2018-02-23T20:30:22.983Z,63.30
2018-02-23T20:32:56.775Z,63.30
2018-02-23T20:35:25.739Z,64.00
2018-02-23T20:37:56.479Z,64.40
2018-02-23T20:40:29.666Z,63.80
2018-02-23T20:42:58.710Z,64.20
2018-02-23T20:45:28.671Z,64.80
2018-02-23T20:47:56.715Z,64.20
2018-02-23T20:50:28.902Z,63.80
2018-02-23T20:52:56.934Z,64.10
2018-02-23T20:55:25.983Z,65.10
2018-02-23T20:57:54.039Z,63.60
2018-02-23T21:00:23.051Z,64.30
2018-02-23T21:02:51.863Z,64.50
2018-02-23T21:05:21.871Z,64.50
2018-02-23T21:07:50.818Z,65.10
2018-02-23T21:10:18.904Z,65.10
2018-02-23T21:12:53.615Z,65.10
2018-02-23T21:15:21.644Z,65.90
2018-02-23T21:17:50.690Z,66.00
2018-02-23T21:20:18.744Z,66.60
2018-02-23T21:22:46.819Z,67.50
2018-02-23T21:25:16.871Z,67.60
2018-02-23T21:27:45.871Z,67.40
2018-02-23T21:30:15.859Z,67.10
2018-02-23T21:32:50.263Z,67.00
2018-02-23T21:35:19.311Z,67.50
2018-02-23T21:37:53.818Z,67.70
2018-02-23T21:40:22.331Z,68.10
2018-02-23T21:42:52.322Z,68.20
2018-02-23T21:45:26.611Z,68.30
2018-02-23T21:47:54.687Z,68.00
2018-02-23T21:50:22.731Z,69.40
2018-02-23T21:52:58.738Z,69.50
2018-02-23T21:55:26.863Z,69.80
2018-02-23T21:57:54.955Z,69.80
2018-02-23T22:00:27.330Z,71.50
2018-02-23T22:02:56.179Z,71.50
2018-02-23T22:05:26.274Z,71.50
2018-02-23T22:07:54.332Z,71.80
2018-02-23T22:10:25.154Z,71.60
2018-02-23T22:12:54.166Z,71.60
2018-02-23T22:15:22.195Z,71.20
2018-02-23T22:17:51.218Z,71.60
2018-02-23T22:20:19.267Z,72.00
2018-02-23T22:22:49.114Z,72.20
2018-02-23T22:25:17.175Z,72.10
2018-02-23T22:27:51.466Z,72.90
2018-02-23T22:30:20.474Z,72.80
2018-02-23T22:32:49.487Z,72.50
2018-02-23T22:35:18.527Z,73.30
2018-02-23T22:37:51.295Z,73.20
2018-02-23T22:40:21.382Z,73.20
2018-02-23T22:42:50.327Z,73.90
2018-02-23T22:45:19.138Z,74.90
2018-02-23T22:47:48.123Z,74.10
2018-02-23T22:50:16.914Z,75.20
2018-02-23T22:52:46.918Z,74.40
2018-02-23T22:55:14.951Z,74.20
2018-02-23T22:57:44.710Z,74.10
2018-02-23T23:00:13.806Z,74.00
2018-02-23T23:02:43.795Z,73.90
2018-02-23T23:05:11.822Z,73.50
2018-02-23T23:07:47.134Z,74.40
2018-02-23T23:10:18.841Z,73.60
2018-02-23T23:12:46.874Z,73.50
2018-02-23T23:15:21.318Z,73.60
2018-02-23T23:17:49.360Z,73.60
2018-02-23T23:20:19.326Z,73.50
2018-02-23T23:22:48.274Z,73.30
2018-02-23T23:25:17.338Z,73.40
2018-02-23T23:27:45.443Z,73.10
2018-02-23T23:30:18.326Z,73.20
2018-02-23T23:32:46.398Z,73.40
2018-02-23T23:35:22.395Z,73.70
2018-02-23T23:37:50.454Z,73.90
2018-02-23T23:40:18.562Z,73.90
2018-02-23T23:42:48.255Z,74.80
2018-02-23T23:45:17.090Z,74.70
2018-02-23T23:47:45.209Z,74.60
2018-02-23T23:50:13.206Z,75.00
2018-02-23T23:52:46.625Z,75.70
2018-02-23T23:55:18.678Z,75.70
2018-02-23T23:57:50.326Z,75.80
